createdAt,value
2017-12-16T00:02:19.003Z,97052.69
2017-12-16T00:04:48.877Z,97053.77
2017-12-16T00:07:18.778Z,97066.97
2017-12-16T00:09:48.735Z,97061.41
2017-12-16T00:12:18.095Z,97061.09
2017-12-16T00:14:48.443Z,97059.28
2017-12-16T00:17:18.428Z,97059.37
2017-12-16T00:19:48.858Z,97060.64
2017-12-16T00:22:19.437Z,97055.49
2017-12-16T00:24:51.448Z,97060.34
2017-12-16T00:27:21.377Z,97061.05
2017-12-16T00:29:51.309Z,97066.86
2017-12-16T00:32:21.256Z,97071.01
2017-12-16T00:34:50.866Z,97073.52
2017-12-16T00:37:20.830Z,97075.90
2017-12-16T00:39:50.731Z,97073.05
2017-12-16T00:42:20.510Z,97077.81
2017-12-16T00:44:50.598Z,97084.04
2017-12-16T00:47:20.559Z,97087.12
2017-12-16T00:49:51.269Z,97080.00
2017-12-16T00:52:20.957Z,97095.41
2017-12-16T00:54:50.892Z,97100.22
2017-12-16T00:57:25.113Z,97107.78
2017-12-16T00:59:55.064Z,97099.75
2017-12-16T01:02:25.002Z,97106.84
2017-12-16T01:04:54.958Z,97111.66
2017-12-16T01:07:24.863Z,97115.42
2017-12-16T01:09:55.042Z,97119.72
2017-12-16T01:12:24.973Z,97123.19
2017-12-16T01:14:54.723Z,97134.70
2017-12-16T01:17:24.671Z,97134.14
2017-12-16T01:19:54.675Z,97133.95
2017-12-16T01:22:24.614Z,97137.93
2017-12-16T01:24:54.510Z,97138.00
2017-12-16T01:27:24.443Z,97146.05
2017-12-16T01:29:54.399Z,97146.52
2017-12-16T01:32:24.323Z,97150.98
2017-12-16T01:38:16.414Z,97151.75
2017-12-16T01:40:45.985Z,97147.06
2017-12-16T01:43:15.652Z,97149.21
2017-12-16T01:45:45.529Z,97142.36
2017-12-16T01:48:15.418Z,97149.86
2017-12-16T01:50:45.492Z,97147.16
2017-12-16T01:53:15.063Z,97150.46
2017-12-16T01:55:44.617Z,97155.09
2017-12-16T01:58:14.256Z,97146.23
2017-12-16T02:00:44.036Z,97145.09
2017-12-16T02:03:13.400Z,97148.81
2017-12-16T02:05:42.727Z,97155.66
2017-12-16T02:08:12.102Z,97160.97
2017-12-16T02:10:41.382Z,97161.88
2017-12-16T02:13:11.235Z,97162.80
2017-12-16T02:15:41.239Z,97165.95
2017-12-16T02:18:10.563Z,97155.88
2017-12-16T02:20:40.193Z,97154.12
2017-12-16T02:23:10.169Z,97152.34
2017-12-16T02:25:39.458Z,97158.66
2017-12-16T02:28:09.108Z,97153.80
2017-12-16T02:30:38.748Z,97165.09
2017-12-16T02:33:08.464Z,97172.28
2017-12-16T02:35:38.175Z,97168.42
2017-12-16T02:40:58.533Z,97180.31
2017-12-16T02:46:01.721Z,97177.27
2017-12-16T02:48:31.403Z,97175.77
2017-12-16T02:51:01.014Z,97172.30
2017-12-16T02:53:33.859Z,97172.20
2017-12-16T02:56:03.217Z,97171.58
2017-12-16T02:58:32.790Z,97166.80
2017-12-16T03:01:02.161Z,97163.16
2017-12-16T03:03:31.922Z,97167.33
2017-12-16T03:06:01.489Z,97165.16
2017-12-16T03:08:30.815Z,97166.16
2017-12-16T03:11:00.315Z,97161.66
2017-12-16T03:13:29.852Z,97164.80
2017-12-16T03:15:59.513Z,97169.88
2017-12-16T03:18:28.852Z,97168.92
2017-12-16T03:21:02.117Z,97171.20
2017-12-16T03:23:31.472Z,97169.88
2017-12-16T03:26:00.991Z,97158.05
2017-12-16T03:28:30.646Z,97169.23
2017-12-16T03:31:00.309Z,97166.40
2017-12-16T03:33:29.677Z,97168.73
2017-12-16T03:35:59.354Z,97168.94
2017-12-16T03:38:28.447Z,97166.21
2017-12-16T03:40:57.848Z,97166.12
2017-12-16T03:43:27.393Z,97163.13
2017-12-16T03:45:56.954Z,97161.49
2017-12-16T03:48:26.276Z,97158.67
2017-12-16T03:50:55.614Z,97162.98
2017-12-16T03:53:25.267Z,97161.66
2017-12-16T03:55:54.870Z,97169.41
2017-12-16T03:58:24.482Z,97176.84
2017-12-16T04:00:55.035Z,97179.69
2017-12-16T04:03:24.925Z,97170.26
2017-12-16T04:05:54.576Z,97176.21
2017-12-16T04:08:24.591Z,97174.88
2017-12-16T04:10:54.034Z,97175.89
2017-12-16T04:13:24.039Z,97179.39
2017-12-16T04:15:53.691Z,97172.61
2017-12-16T04:18:23.714Z,97174.38
2017-12-16T04:20:55.527Z,97158.36
2017-12-16T04:23:25.277Z,97176.62
2017-12-16T04:25:59.547Z,97174.29
2017-12-16T04:28:29.816Z,97185.44
2017-12-16T04:30:59.622Z,97192.25
2017-12-16T04:33:29.577Z,97200.24
2017-12-16T04:35:59.125Z,97191.38
2017-12-16T04:38:29.165Z,97190.89
2017-12-16T04:40:58.741Z,97194.45
2017-12-16T04:43:28.288Z,97192.52
2017-12-16T04:45:57.915Z,97195.72
2017-12-16T04:48:27.551Z,97196.02
2017-12-16T04:50:57.131Z,97198.66
2017-12-16T04:53:27.072Z,97200.59
2017-12-16T04:55:56.634Z,97196.91
2017-12-16T04:58:26.317Z,97199.23
2017-12-16T05:00:57.854Z,97202.10
2017-12-16T05:03:28.182Z,97199.95
2017-12-16T05:05:58.778Z,97205.25
2017-12-16T05:08:28.316Z,97209.72
2017-12-16T05:10:58.376Z,97208.58
2017-12-16T05:13:28.002Z,97207.61
2017-12-16T05:15:57.569Z,97209.88
2017-12-16T05:18:27.484Z,97207.24
2017-12-16T05:20:57.186Z,97205.69
2017-12-16T05:23:26.830Z,97216.12
2017-12-16T05:25:56.454Z,97213.50
2017-12-16T05:28:26.682Z,97212.14
2017-12-16T05:30:56.270Z,97217.41
2017-12-16T05:33:25.871Z,97226.04
2017-12-16T05:35:56.265Z,97223.40
2017-12-16T05:38:26.465Z,97226.34
2017-12-16T05:40:56.024Z,97236.82
2017-12-16T05:43:25.702Z,97235.08
2017-12-16T05:45:55.828Z,97237.02
2017-12-16T05:48:25.455Z,97240.24
2017-12-16T05:50:54.761Z,97241.45
2017-12-16T05:53:28.471Z,97234.58
2017-12-16T05:55:58.192Z,97230.95
2017-12-16T05:58:27.776Z,97235.38
2017-12-16T06:00:58.378Z,97239.77
2017-12-16T06:03:28.173Z,97234.67
2017-12-16T06:05:57.804Z,97245.50
2017-12-16T06:08:27.777Z,97250.49
2017-12-16T06:10:57.540Z,97258.42
2017-12-16T06:13:27.698Z,97266.70
2017-12-16T06:15:57.295Z,97273.31
2017-12-16T06:18:28.555Z,97275.80
2017-12-16T06:20:58.695Z,97272.39
2017-12-16T06:23:28.725Z,97268.40
2017-12-16T06:25:58.345Z,97273.64
2017-12-16T06:28:29.126Z,97280.95
2017-12-16T06:30:58.974Z,97280.00
2017-12-16T06:33:29.401Z,97288.94
2017-12-16T06:36:09.969Z,97284.23
2017-12-16T06:38:40.590Z,97294.61
2017-12-16T06:41:10.557Z,97297.52
2017-12-16T06:43:39.980Z,97307.55
2017-12-16T06:46:09.742Z,97309.87
2017-12-16T06:48:40.174Z,97311.59
2017-12-16T06:51:10.406Z,97312.45
2017-12-16T06:53:42.893Z,97317.14
2017-12-16T06:56:13.601Z,97319.97
2017-12-16T06:58:43.147Z,97327.80
2017-12-16T07:01:12.682Z,97321.25
2017-12-16T07:03:42.495Z,97329.20
2017-12-16T07:06:12.176Z,97327.56
2017-12-16T07:08:42.476Z,97339.44
2017-12-16T07:11:14.118Z,97340.70
2017-12-16T07:13:43.651Z,97342.84
2017-12-16T07:16:13.942Z,97343.42
2017-12-16T07:18:44.093Z,97344.11
2017-12-16T07:21:15.161Z,97351.38
2017-12-16T07:23:49.619Z,97355.39
2017-12-16T07:26:19.295Z,97363.13
2017-12-16T07:28:49.286Z,97361.88
2017-12-16T07:31:32.651Z,97361.95
2017-12-16T07:34:02.535Z,97368.20
2017-12-16T07:36:32.054Z,97366.73
2017-12-16T07:39:01.889Z,97379.24
2017-12-16T07:41:31.745Z,97391.92
2017-12-16T07:44:01.342Z,97396.81
2017-12-16T07:46:31.194Z,97407.11
2017-12-16T07:49:01.092Z,97405.55
2017-12-16T07:51:31.898Z,97410.34
2017-12-16T07:54:03.157Z,97415.31
2017-12-16T07:56:33.045Z,97421.42
2017-12-16T07:59:03.256Z,97427.84
2017-12-16T08:01:33.798Z,97426.44
2017-12-16T08:04:05.656Z,97427.31
2017-12-16T08:06:35.271Z,97432.72
2017-12-16T08:09:07.387Z,97435.89
2017-12-16T08:11:38.864Z,97441.28
2017-12-16T08:14:10.475Z,97444.73
2017-12-16T08:16:40.811Z,97448.71
2017-12-16T08:19:13.156Z,97444.69
2017-12-16T08:21:46.111Z,97452.11
2017-12-16T08:24:16.561Z,97456.05
2017-12-16T08:26:46.227Z,97463.81
2017-12-16T08:29:16.058Z,97459.52
2017-12-16T08:34:24.486Z,97465.92
2017-12-16T08:36:54.673Z,97466.32
2017-12-16T08:39:24.534Z,97476.05
2017-12-16T08:41:54.385Z,97471.83
2017-12-16T08:44:24.171Z,97473.86
2017-12-16T08:46:54.060Z,97488.61
2017-12-16T08:49:23.823Z,97495.81
2017-12-16T08:51:53.639Z,97496.98
2017-12-16T08:54:23.483Z,97495.56
2017-12-16T08:56:53.361Z,97504.91
2017-12-16T08:59:23.186Z,97512.27
2017-12-16T09:01:53.064Z,97517.71
2017-12-16T09:04:24.866Z,97511.63
2017-12-16T09:06:54.746Z,97521.34
2017-12-16T09:09:24.426Z,97528.92
2017-12-16T09:11:54.320Z,97535.98
2017-12-16T09:14:24.263Z,97535.41
2017-12-16T09:22:03.295Z,97538.87
2017-12-16T09:24:33.194Z,97534.61
2017-12-16T09:27:04.152Z,97552.34
2017-12-16T09:29:34.094Z,97554.73
2017-12-16T09:32:03.941Z,97563.92
2017-12-16T09:34:33.842Z,97557.80
2017-12-16T09:37:04.727Z,97561.27
2017-12-16T09:39:34.869Z,97552.95
2017-12-16T09:42:04.896Z,97560.77
2017-12-16T09:44:34.739Z,97554.34
2017-12-16T09:47:04.659Z,97570.25
2017-12-16T09:49:34.725Z,97561.89
2017-12-16T09:52:04.620Z,97574.12
2017-12-16T09:54:34.797Z,97570.12
2017-12-16T09:57:04.604Z,97565.46
2017-12-16T09:59:34.970Z,97566.33
2017-12-16T10:02:05.056Z,97570.81
2017-12-16T10:04:34.961Z,97569.61
2017-12-16T10:07:04.815Z,97571.84
2017-12-16T10:09:34.736Z,97572.34
2017-12-16T10:12:05.185Z,97570.37
2017-12-16T10:14:35.119Z,97577.61
2017-12-16T10:17:05.308Z,97572.05
2017-12-16T10:19:36.210Z,97569.90
2017-12-16T10:22:06.301Z,97571.36
2017-12-16T10:24:36.160Z,97574.25
2017-12-16T10:27:06.026Z,97583.00
2017-12-16T10:29:35.840Z,97582.56
2017-12-16T10:32:06.403Z,97583.73
2017-12-16T10:34:36.297Z,97585.33
2017-12-16T10:37:06.990Z,97591.18
2017-12-16T10:39:36.900Z,97583.37
2017-12-16T10:42:06.768Z,97590.69
2017-12-16T10:44:36.682Z,97590.72
2017-12-16T10:47:07.738Z,97587.63
2017-12-16T10:49:38.305Z,97590.61
2017-12-16T10:52:08.000Z,97598.13
2017-12-16T10:54:38.585Z,97606.39
2017-12-16T10:57:08.406Z,97607.14
2017-12-16T10:59:38.093Z,97608.50
2017-12-16T11:02:07.993Z,97616.61
2017-12-16T11:04:37.893Z,97621.95
2017-12-16T11:07:07.501Z,97620.27
2017-12-16T11:09:37.767Z,97620.91
2017-12-16T11:12:08.112Z,97620.73
2017-12-16T11:14:38.007Z,97622.41
2017-12-16T11:17:07.843Z,97623.30
2017-12-16T11:19:37.729Z,97616.01
2017-12-16T11:22:07.630Z,97624.20
2017-12-16T11:24:38.112Z,97616.25
2017-12-16T11:27:07.984Z,97625.64
2017-12-16T11:29:38.073Z,97633.69
2017-12-16T11:32:07.688Z,97635.41
2017-12-16T11:34:37.702Z,97635.42
2017-12-16T11:37:08.012Z,97641.62
2017-12-16T11:39:39.680Z,97644.79
2017-12-16T11:42:10.114Z,97645.92
2017-12-16T11:44:41.350Z,97650.56
2017-12-16T11:47:11.310Z,97653.73
2017-12-16T11:49:42.578Z,97646.98
2017-12-16T11:52:12.637Z,97654.25
2017-12-16T11:54:42.765Z,97659.65
2017-12-16T11:57:12.733Z,97661.57
2017-12-16T11:59:43.819Z,97667.59
2017-12-16T12:02:13.761Z,97662.56
2017-12-16T12:04:43.585Z,97674.63
2017-12-16T12:07:14.006Z,97671.81
2017-12-16T12:09:43.871Z,97668.64
2017-12-16T12:12:14.148Z,97675.69
2017-12-16T12:14:44.963Z,97674.61
2017-12-16T12:17:15.605Z,97681.91
2017-12-16T12:19:46.403Z,97683.20
2017-12-16T12:22:18.116Z,97687.20
2017-12-16T12:24:48.141Z,97689.57
2017-12-16T12:27:17.742Z,97691.63
2017-12-16T12:29:47.789Z,97690.00
2017-12-16T12:32:18.435Z,97691.97
2017-12-16T12:34:48.299Z,97697.59
2017-12-16T12:37:19.239Z,97698.83
2017-12-16T12:39:49.089Z,97699.73
2017-12-16T12:42:18.974Z,97707.41
2017-12-16T12:44:48.889Z,97703.11
2017-12-16T12:47:19.115Z,97707.44
2017-12-16T12:49:49.032Z,97713.86
2017-12-16T12:52:19.059Z,97701.80
2017-12-16T12:54:48.978Z,97705.75
2017-12-16T12:57:18.925Z,97702.14
2017-12-16T12:59:48.835Z,97699.48
2017-12-16T13:02:18.935Z,97699.63
2017-12-16T13:04:48.733Z,97705.24
2017-12-16T13:07:18.576Z,97706.32
2017-12-16T13:09:48.488Z,97712.22
2017-12-16T13:12:22.548Z,97712.48
2017-12-16T13:14:52.573Z,97717.78
2017-12-16T13:17:22.551Z,97722.53
2017-12-16T13:19:52.840Z,97716.20
2017-12-16T13:22:22.788Z,97713.89
2017-12-16T13:24:52.717Z,97720.14
2017-12-16T13:27:22.632Z,97729.26
2017-12-16T13:29:52.736Z,97735.78
2017-12-16T13:32:22.603Z,97735.78
2017-12-16T13:34:52.559Z,97744.27
2017-12-16T13:37:22.670Z,97751.77
2017-12-16T13:39:53.425Z,97754.05
2017-12-16T13:42:23.238Z,97757.02
2017-12-16T13:44:52.729Z,97772.28
2017-12-16T13:47:23.036Z,97775.97
2017-12-16T13:49:52.886Z,97774.46
2017-12-16T13:52:23.209Z,97775.47
2017-12-16T13:54:53.181Z,97777.95
2017-12-16T13:57:23.014Z,97776.34
2017-12-16T13:59:53.856Z,97775.48
2017-12-16T14:02:24.331Z,97785.13
2017-12-16T14:04:55.804Z,97776.75
2017-12-16T14:07:25.730Z,97776.73
2017-12-16T14:09:56.535Z,97781.69
2017-12-16T14:12:26.473Z,97786.58
2017-12-16T14:14:56.358Z,97789.11
2017-12-16T14:17:27.165Z,97792.59
2017-12-16T14:19:57.263Z,97794.05
2017-12-16T14:22:27.663Z,97803.57
2017-12-16T14:24:57.590Z,97806.45
2017-12-16T14:27:27.803Z,97814.37
2017-12-16T14:29:57.684Z,97817.63
2017-12-16T14:32:27.529Z,97820.16
2017-12-16T14:34:57.747Z,97821.17
2017-12-16T14:37:27.698Z,97820.77
2017-12-16T14:39:57.622Z,97826.94
2017-12-16T14:42:29.027Z,97830.13
2017-12-16T14:44:58.986Z,97829.88
2017-12-16T14:47:28.877Z,97832.86
2017-12-16T14:49:59.008Z,97836.22
2017-12-16T14:52:31.198Z,97841.33
2017-12-16T14:55:01.057Z,97847.33
2017-12-16T14:57:32.466Z,97851.92
2017-12-16T15:00:02.351Z,97852.84
2017-12-16T15:02:32.701Z,97856.06
2017-12-16T15:05:04.022Z,97855.16
2017-12-16T15:07:34.137Z,97865.93
2017-12-16T15:10:03.948Z,97867.86
2017-12-16T15:12:33.902Z,97866.19
2017-12-16T15:15:03.698Z,97870.84
2017-12-16T15:17:33.490Z,97875.28
2017-12-16T15:20:03.417Z,97878.94
2017-12-16T15:22:33.404Z,97875.67
2017-12-16T15:25:03.647Z,97879.88
2017-12-16T15:27:33.561Z,97885.21
2017-12-16T15:30:03.377Z,97888.58
2017-12-16T15:32:33.402Z,97881.31
2017-12-16T15:35:03.219Z,97889.25
2017-12-16T15:37:33.077Z,97894.88
2017-12-16T15:40:03.897Z,97895.39
2017-12-16T15:42:33.776Z,97904.72
2017-12-16T15:45:03.618Z,97897.86
2017-12-16T15:47:33.439Z,97902.47
2017-12-16T15:50:03.321Z,97909.82
2017-12-16T15:52:33.405Z,97908.50
2017-12-16T15:55:03.247Z,97915.44
2017-12-16T15:57:42.258Z,97912.00
2017-12-16T16:00:12.032Z,97919.75
2017-12-16T16:02:41.894Z,97922.87
2017-12-16T16:05:22.900Z,97926.67
2017-12-16T16:07:57.680Z,97934.30
2017-12-16T16:10:35.026Z,97934.75
2017-12-16T16:13:05.399Z,97936.71
2017-12-16T16:18:19.660Z,97944.21
2017-12-16T16:20:55.084Z,97943.91
2017-12-16T16:26:15.600Z,97950.91
2017-12-16T16:28:47.302Z,97952.23
2017-12-16T16:31:17.183Z,97961.59
2017-12-16T16:33:47.320Z,97962.16
2017-12-16T16:36:17.138Z,97954.38
2017-12-16T16:38:47.359Z,97960.94
2017-12-16T16:41:17.267Z,97966.09
2017-12-16T16:43:47.144Z,97969.89
2017-12-16T16:46:18.039Z,97976.88
2017-12-16T16:48:48.348Z,97972.47
2017-12-16T16:51:18.456Z,97975.34
2017-12-16T16:53:49.115Z,97982.34
2017-12-16T16:56:20.772Z,97989.50
2017-12-16T16:58:53.120Z,97988.77
2017-12-16T17:01:24.312Z,97990.06
2017-12-16T17:03:54.499Z,97991.53
2017-12-16T17:06:27.873Z,97996.59
2017-12-16T17:09:14.559Z,98004.62
2017-12-16T17:11:44.740Z,98007.56
2017-12-16T17:14:14.856Z,98014.86
2017-12-16T17:16:45.247Z,98021.84
2017-12-16T17:19:15.097Z,98024.71
2017-12-16T17:21:45.255Z,98018.14
2017-12-16T17:24:14.928Z,98027.32
2017-12-16T17:26:44.846Z,98026.16
2017-12-16T17:29:15.834Z,98026.47
2017-12-16T17:31:45.746Z,98032.45
2017-12-16T17:34:15.655Z,98027.87
2017-12-16T17:36:45.317Z,98024.80
2017-12-16T17:39:15.283Z,98026.00
2017-12-16T17:41:45.031Z,98019.47
2017-12-16T17:44:15.011Z,98033.30
2017-12-16T17:46:44.979Z,98039.16
2017-12-16T17:49:15.202Z,98045.03
2017-12-16T17:51:45.177Z,98051.64
2017-12-16T17:54:15.066Z,98055.44
2017-12-16T17:56:45.058Z,98060.20
2017-12-16T17:59:15.541Z,98056.28
2017-12-16T18:01:45.534Z,98054.28
2017-12-16T18:04:15.497Z,98060.66
2017-12-16T18:06:45.578Z,98063.57
2017-12-16T18:09:16.362Z,98067.56
2017-12-16T18:11:46.281Z,98073.88
2017-12-16T18:14:16.159Z,98077.50
2017-12-16T18:16:46.111Z,98079.92
2017-12-16T18:19:15.992Z,98087.30
2017-12-16T18:21:45.930Z,98093.67
2017-12-16T18:24:16.057Z,98096.43
2017-12-16T18:26:46.020Z,98099.61
2017-12-16T18:29:16.006Z,98102.59
2017-12-16T18:31:45.828Z,98110.97
2017-12-16T18:34:15.667Z,98103.92
2017-12-16T18:36:45.622Z,98116.39
2017-12-16T18:39:15.888Z,98117.33
2017-12-16T18:41:45.936Z,98124.56
2017-12-16T18:44:16.223Z,98132.27
2017-12-16T18:46:46.651Z,98135.12
2017-12-16T18:49:16.649Z,98135.22
2017-12-16T18:51:46.760Z,98138.62
2017-12-16T18:54:16.724Z,98138.62
2017-12-16T18:56:46.637Z,98144.84
2017-12-16T18:59:17.016Z,98151.89
2017-12-16T19:01:47.055Z,98157.01
2017-12-16T19:04:17.067Z,98158.25
2017-12-16T19:06:47.033Z,98159.58
2017-12-16T19:09:16.954Z,98163.55
2017-12-16T19:11:46.926Z,98171.33
2017-12-16T19:14:16.901Z,98171.64
2017-12-16T19:16:46.800Z,98181.13
2017-12-16T19:19:16.676Z,98181.44
2017-12-16T19:21:46.885Z,98190.95
2017-12-16T19:24:16.440Z,98195.20
2017-12-16T19:26:46.385Z,98199.61
2017-12-16T19:29:16.586Z,98201.25
2017-12-16T19:31:46.337Z,98204.92
2017-12-16T19:34:16.352Z,98218.94
2017-12-16T19:36:46.183Z,98226.19
2017-12-16T19:39:16.346Z,98233.84
2017-12-16T19:41:46.672Z,98244.67
2017-12-16T19:44:16.555Z,98240.81
2017-12-16T19:46:46.386Z,98241.91
2017-12-16T19:49:16.202Z,98246.13
2017-12-16T19:51:46.197Z,98243.46
2017-12-16T19:54:16.042Z,98256.02
2017-12-16T19:56:45.866Z,98256.63
2017-12-16T19:59:15.772Z,98269.49
2017-12-16T20:01:45.683Z,98281.94
2017-12-16T20:04:15.498Z,98277.83
2017-12-16T20:06:45.420Z,98281.08
2017-12-16T20:09:14.987Z,98291.50
2017-12-16T20:11:44.830Z,98300.21
2017-12-16T20:14:14.709Z,98306.45
2017-12-16T20:16:44.675Z,98314.52
2017-12-16T20:19:14.781Z,98318.63
2017-12-16T20:21:47.133Z,98327.42
2017-12-16T20:24:17.020Z,98320.97
2017-12-16T20:26:46.962Z,98329.44
2017-12-16T20:29:17.184Z,98328.25
2017-12-16T20:31:48.432Z,98333.56
2017-12-16T20:34:18.646Z,98341.44
2017-12-16T20:36:48.478Z,98345.59
2017-12-16T20:39:18.322Z,98347.52
2017-12-16T20:41:48.083Z,98356.21
2017-12-16T20:44:18.022Z,98361.22
2017-12-16T20:46:47.894Z,98364.94
2017-12-16T20:49:17.812Z,98367.09
2017-12-16T20:51:47.614Z,98369.19
2017-12-16T20:54:17.556Z,98378.95
2017-12-16T20:56:47.531Z,98382.27
2017-12-16T20:59:18.233Z,98378.38
2017-12-16T21:01:48.083Z,98384.36
2017-12-16T21:04:17.901Z,98380.29
2017-12-16T21:06:47.792Z,98382.34
2017-12-16T21:09:17.594Z,98383.78
2017-12-16T21:11:47.450Z,98377.87
2017-12-16T21:14:17.366Z,98386.77
2017-12-16T21:16:47.334Z,98382.45
2017-12-16T21:19:17.247Z,98389.01
2017-12-16T21:21:47.325Z,98391.25
2017-12-16T21:24:17.394Z,98390.55
2017-12-16T21:26:47.238Z,98387.17
2017-12-16T21:29:17.750Z,98391.89
2017-12-16T21:31:47.667Z,98395.05
2017-12-16T21:34:17.605Z,98397.81
2017-12-16T21:36:47.449Z,98398.53
2017-12-16T21:39:17.298Z,98395.55
2017-12-16T21:41:47.191Z,98401.55
2017-12-16T21:44:17.894Z,98400.87
2017-12-16T21:46:47.719Z,98404.95
2017-12-16T21:49:17.824Z,98400.69
2017-12-16T21:51:48.586Z,98408.77
2017-12-16T21:54:18.927Z,98411.52
2017-12-16T21:56:48.751Z,98411.14
2017-12-16T21:59:18.807Z,98415.31
2017-12-16T22:01:48.765Z,98417.47
2017-12-16T22:04:19.101Z,98433.33
2017-12-16T22:06:48.997Z,98437.41
2017-12-16T22:09:18.877Z,98438.83
2017-12-16T22:11:48.849Z,98439.64
2017-12-16T22:14:18.704Z,98442.80
2017-12-16T22:16:48.542Z,98443.08
2017-12-16T22:19:18.488Z,98444.49
2017-12-16T22:21:48.632Z,98451.13
2017-12-16T22:24:18.551Z,98455.75
2017-12-16T22:26:48.195Z,98452.67
2017-12-16T22:29:18.093Z,98459.69
2017-12-16T22:31:47.961Z,98459.77
2017-12-16T22:34:17.808Z,98467.88
2017-12-16T22:36:47.735Z,98471.45
2017-12-16T22:39:17.670Z,98476.75
2017-12-16T22:41:48.912Z,98478.66
2017-12-16T22:44:19.839Z,98474.04
2017-12-16T22:46:49.702Z,98469.97
2017-12-16T22:49:20.640Z,98472.68
2017-12-16T22:51:50.562Z,98482.85
2017-12-16T22:54:20.653Z,98481.74
2017-12-16T22:56:50.567Z,98482.56
2017-12-16T22:59:20.083Z,98479.92
2017-12-16T23:01:49.967Z,98473.69
2017-12-16T23:04:19.544Z,98470.15
2017-12-16T23:06:49.507Z,98470.04
2017-12-16T23:09:19.473Z,98470.66
2017-12-16T23:11:49.179Z,98469.14
2017-12-16T23:14:18.750Z,98469.03
2017-12-16T23:16:48.331Z,98473.20
2017-12-16T23:19:19.284Z,98465.98
2017-12-16T23:21:49.226Z,98478.22
2017-12-16T23:24:18.848Z,98473.84
2017-12-16T23:26:48.775Z,98474.47
2017-12-16T23:29:18.434Z,98469.05
2017-12-16T23:31:47.687Z,98477.77
2017-12-16T23:34:17.234Z,98470.53
2017-12-16T23:36:46.950Z,98471.86
2017-12-16T23:39:16.665Z,98476.27
2017-12-16T23:41:46.323Z,98471.88
2017-12-16T23:44:16.219Z,98482.19
2017-12-16T23:46:45.759Z,98479.25
2017-12-16T23:49:15.574Z,98483.61
2017-12-16T23:51:45.138Z,98480.25
2017-12-16T23:54:14.679Z,98483.00
2017-12-16T23:56:44.579Z,98478.51
2017-12-16T23:59:14.136Z,98480.62
